createdAt,value
2019-01-06T00:00:02.264Z,2.40
2019-01-06T00:02:45.712Z,2.40
2019-01-06T00:05:31.625Z,2.40
2019-01-06T00:08:21.173Z,2.30
2019-01-06T00:11:25.805Z,2.40
2019-01-06T00:14:15.457Z,2.40
2019-01-06T00:17:10.892Z,2.30
2019-01-06T00:19:55.225Z,2.40
2019-01-06T00:22:44.617Z,2.30
2019-01-06T00:25:34.090Z,2.30
2019-01-06T00:28:33.754Z,2.30
2019-01-06T00:31:29.724Z,2.30
2019-01-06T00:34:17.729Z,2.40
2019-01-06T00:37:19.966Z,2.40
2019-01-06T00:40:20.431Z,2.40
2019-01-06T00:43:16.085Z,2.50
2019-01-06T00:46:03.934Z,2.40
2019-01-06T00:48:53.210Z,2.50
2019-01-06T00:51:46.263Z,2.40
2019-01-06T00:54:35.651Z,2.30
2019-01-06T00:57:23.011Z,2.40
2019-01-06T01:00:15.652Z,2.50
2019-01-06T01:03:17.272Z,2.30
2019-01-06T01:06:07.240Z,2.30
2019-01-06T01:08:55.926Z,2.20
2019-01-06T01:11:44.347Z,2.10
2019-01-06T01:14:49.584Z,2.20
2019-01-06T01:17:51.000Z,2.10
2019-01-06T01:20:40.615Z,2.10
2019-01-06T01:23:43.891Z,2.20
2019-01-06T01:26:48.433Z,2.20
2019-01-06T01:29:36.075Z,2.20
2019-01-06T01:32:22.961Z,2.10
2019-01-06T01:35:18.494Z,2.00
2019-01-06T01:38:10.690Z,1.90
2019-01-06T01:41:00.935Z,2.00
2019-01-06T01:43:48.873Z,2.00
2019-01-06T01:46:44.170Z,2.00
2019-01-06T01:49:34.042Z,2.10
2019-01-06T01:52:37.020Z,2.00
2019-01-06T01:55:25.485Z,2.00
2019-01-06T01:58:30.509Z,2.00
2019-01-06T02:01:17.635Z,2.00
2019-01-06T02:04:05.815Z,2.10
2019-01-06T02:07:04.674Z,2.00
2019-01-06T02:09:54.555Z,2.00
2019-01-06T02:12:52.571Z,2.00
2019-01-06T02:15:57.955Z,2.00
2019-01-06T02:18:46.200Z,2.00
2019-01-06T02:21:35.763Z,1.90
2019-01-06T02:24:37.675Z,2.00
2019-01-06T02:27:27.141Z,2.00
2019-01-06T02:30:29.698Z,2.00
2019-01-06T02:33:22.565Z,2.10
2019-01-06T02:36:15.818Z,2.00
2019-01-06T02:38:56.227Z,2.00
2019-01-06T02:41:57.543Z,2.10
2019-01-06T02:44:45.571Z,2.00
2019-01-06T02:47:33.899Z,1.90
2019-01-06T02:50:33.027Z,1.80
2019-01-06T02:53:41.516Z,1.70
2019-01-06T02:56:31.508Z,1.70
2019-01-06T02:59:27.651Z,1.70
2019-01-06T03:02:15.696Z,1.70
2019-01-06T03:05:12.771Z,1.80
2019-01-06T03:08:08.036Z,1.70
2019-01-06T03:11:00.599Z,1.60
2019-01-06T03:13:45.107Z,1.70
2019-01-06T03:16:31.225Z,1.80
2019-01-06T03:19:21.418Z,1.70
2019-01-06T03:22:09.164Z,1.70
2019-01-06T03:25:10.707Z,1.80
2019-01-06T03:27:59.300Z,1.70
2019-01-06T03:30:54.791Z,1.60
2019-01-06T03:33:42.705Z,1.60
2019-01-06T03:36:31.264Z,1.60
2019-01-06T03:39:23.496Z,1.60
2019-01-06T03:42:12.570Z,1.50
2019-01-06T03:45:06.379Z,1.50
2019-01-06T03:47:55.906Z,1.60
2019-01-06T03:50:52.341Z,1.60
2019-01-06T03:53:48.326Z,1.50
2019-01-06T03:56:52.889Z,1.40
2019-01-06T03:59:47.492Z,1.50
2019-01-06T04:02:42.689Z,1.50
2019-01-06T04:05:31.102Z,1.50
2019-01-06T04:08:19.684Z,1.70
2019-01-06T04:11:15.617Z,1.60
2019-01-06T04:14:13.994Z,1.50
2019-01-06T04:17:03.975Z,1.50
2019-01-06T04:20:11.492Z,1.50
2019-01-06T04:22:59.522Z,1.60
2019-01-06T04:26:07.923Z,1.60
2019-01-06T04:29:05.696Z,1.60
2019-01-06T04:31:51.143Z,1.50
2019-01-06T04:34:40.762Z,1.40
2019-01-06T04:37:28.855Z,1.50
2019-01-06T04:40:17.861Z,1.50
2019-01-06T04:42:58.926Z,1.50
2019-01-06T04:46:01.094Z,1.50
2019-01-06T04:48:43.979Z,1.50
2019-01-06T04:51:43.416Z,1.60
2019-01-06T04:54:33.728Z,1.60
2019-01-06T04:57:39.312Z,1.70
2019-01-06T05:00:34.259Z,1.60
2019-01-06T05:03:23.846Z,1.60
2019-01-06T05:06:32.019Z,1.60
2019-01-06T05:09:19.802Z,1.60
2019-01-06T05:12:08.005Z,1.60
2019-01-06T05:14:58.135Z,1.50
2019-01-06T05:17:48.869Z,1.50
2019-01-06T05:20:38.205Z,1.60
2019-01-06T05:23:46.390Z,1.60
2019-01-06T05:26:48.028Z,1.40
2019-01-06T05:29:41.283Z,1.40
2019-01-06T05:32:33.973Z,1.50
2019-01-06T05:35:30.611Z,1.50
2019-01-06T05:38:13.224Z,1.60
2019-01-06T05:40:56.965Z,1.50
2019-01-06T05:43:46.424Z,1.50
2019-01-06T05:46:35.280Z,1.50
2019-01-06T05:49:23.520Z,1.50
2019-01-06T05:52:33.752Z,1.40
2019-01-06T05:55:23.508Z,1.50
2019-01-06T05:58:28.088Z,1.40
2019-01-06T06:01:16.316Z,1.50
2019-01-06T06:04:05.713Z,1.50
2019-01-06T06:06:54.495Z,1.60
2019-01-06T06:09:43.582Z,1.50
2019-01-06T06:12:43.001Z,1.60
2019-01-06T06:15:45.013Z,1.60
2019-01-06T06:18:49.933Z,1.60
2019-01-06T06:21:46.016Z,1.70
2019-01-06T06:24:42.193Z,1.50
2019-01-06T06:27:40.669Z,1.60
2019-01-06T06:30:30.210Z,1.60
2019-01-06T06:33:22.481Z,1.50
2019-01-06T06:36:21.799Z,1.60
2019-01-06T06:39:11.495Z,1.60
2019-01-06T06:42:03.643Z,1.60
2019-01-06T06:45:00.277Z,1.50
2019-01-06T06:48:01.507Z,1.60
2019-01-06T06:51:08.609Z,1.50
2019-01-06T06:54:04.145Z,1.60
2019-01-06T06:56:52.125Z,1.50
2019-01-06T06:59:53.904Z,1.50
2019-01-06T07:03:06.706Z,1.50
2019-01-06T07:06:04.861Z,1.40
2019-01-06T07:08:52.717Z,1.50
2019-01-06T07:11:41.887Z,1.50
2019-01-06T07:14:37.110Z,1.50
2019-01-06T07:18:16.234Z,1.40
2019-01-06T07:21:15.220Z,1.50
2019-01-06T07:24:07.073Z,1.60
2019-01-06T07:26:56.343Z,1.60
2019-01-06T07:29:58.852Z,1.60
2019-01-06T07:32:50.955Z,1.60
2019-01-06T07:35:39.069Z,1.70
2019-01-06T07:38:44.014Z,1.60
2019-01-06T07:41:51.807Z,1.60
2019-01-06T07:44:37.098Z,1.70
2019-01-06T07:47:35.812Z,1.70
2019-01-06T07:50:27.908Z,1.70
2019-01-06T07:53:23.186Z,1.80
2019-01-06T07:56:16.039Z,1.70
2019-01-06T07:59:03.901Z,1.70
2019-01-06T08:02:02.698Z,1.80
2019-01-06T08:05:13.278Z,1.70
2019-01-06T08:08:11.464Z,1.60
2019-01-06T08:11:12.899Z,1.50
2019-01-06T08:14:17.553Z,1.50
2019-01-06T08:17:13.750Z,1.50
2019-01-06T08:20:22.164Z,1.50
2019-01-06T08:23:24.130Z,1.50
2019-01-06T08:26:27.019Z,1.60
2019-01-06T08:29:19.688Z,1.60
2019-01-06T08:32:07.740Z,1.80
2019-01-06T08:34:57.402Z,1.80
2019-01-06T08:37:45.624Z,1.70
2019-01-06T08:40:27.638Z,1.70
2019-01-06T08:43:36.040Z,1.60
2019-01-06T08:46:31.979Z,1.60
2019-01-06T08:49:33.733Z,1.70
2019-01-06T08:52:21.869Z,1.80
2019-01-06T08:55:16.468Z,1.80
2019-01-06T08:58:20.640Z,1.80
2019-01-06T09:01:10.112Z,1.70
2019-01-06T09:03:59.522Z,1.50
2019-01-06T09:06:58.927Z,1.40
2019-01-06T09:09:54.685Z,1.50
2019-01-06T09:12:47.499Z,1.50
2019-01-06T09:15:35.505Z,1.60
2019-01-06T09:18:25.751Z,1.60
2019-01-06T09:21:33.128Z,1.70
2019-01-06T09:24:21.526Z,1.60
2019-01-06T09:27:10.631Z,1.50
2019-01-06T09:29:58.464Z,1.50
2019-01-06T09:32:47.419Z,1.60
2019-01-06T09:35:46.151Z,1.70
2019-01-06T09:38:36.704Z,1.70
2019-01-06T09:41:25.266Z,1.80
2019-01-06T09:44:20.588Z,1.90
2019-01-06T09:47:16.593Z,1.90
2019-01-06T09:50:21.413Z,1.90
2019-01-06T09:53:16.867Z,1.90
2019-01-06T09:56:08.908Z,1.90
2019-01-06T09:59:05.165Z,2.00
2019-01-06T10:01:53.274Z,2.00
2019-01-06T10:04:41.798Z,2.10
2019-01-06T10:07:22.724Z,2.20
2019-01-06T10:10:21.361Z,2.10
2019-01-06T10:13:11.268Z,2.10
2019-01-06T10:15:59.388Z,2.00
2019-01-06T10:18:51.724Z,2.00
2019-01-06T10:21:46.965Z,2.00
2019-01-06T10:24:36.253Z,2.10
2019-01-06T10:27:25.776Z,2.20
2019-01-06T10:30:15.055Z,2.00
2019-01-06T10:33:12.096Z,2.10
2019-01-06T10:35:59.643Z,2.20
2019-01-06T10:38:47.871Z,2.20
2019-01-06T10:41:37.749Z,2.10
2019-01-06T10:44:25.684Z,2.10
2019-01-06T10:47:09.909Z,2.20
2019-01-06T10:49:58.384Z,2.10
2019-01-06T10:52:48.379Z,2.10
2019-01-06T10:55:37.636Z,2.10
2019-01-06T10:58:26.223Z,2.10
2019-01-06T11:01:16.087Z,1.90
2019-01-06T11:04:24.176Z,1.90
2019-01-06T11:07:12.545Z,1.90
2019-01-06T11:10:02.138Z,1.90
2019-01-06T11:12:50.264Z,1.90
2019-01-06T11:15:38.119Z,1.80
2019-01-06T11:18:39.752Z,1.70
2019-01-06T11:21:32.588Z,1.70
2019-01-06T11:24:16.457Z,1.80
2019-01-06T11:27:04.975Z,1.80
2019-01-06T11:30:09.197Z,1.80
2019-01-06T11:33:17.408Z,1.80
2019-01-06T11:36:18.655Z,1.80
2019-01-06T11:39:06.830Z,1.90
2019-01-06T11:41:55.757Z,1.90
2019-01-06T11:44:36.902Z,1.80
2019-01-06T11:47:25.452Z,1.90
2019-01-06T11:50:18.248Z,1.80
2019-01-06T11:53:10.380Z,1.80
2019-01-06T11:55:50.115Z,1.90
2019-01-06T11:58:50.137Z,1.90
2019-01-06T12:01:43.604Z,1.80
2019-01-06T12:04:41.787Z,1.90
2019-01-06T12:07:30.054Z,1.90
2019-01-06T12:10:19.907Z,2.00
2019-01-06T12:13:08.168Z,2.10
2019-01-06T12:16:03.470Z,2.10
2019-01-06T12:19:08.293Z,2.20
2019-01-06T12:21:56.742Z,2.20
2019-01-06T12:24:49.087Z,2.20
2019-01-06T12:27:37.833Z,2.30
2019-01-06T12:30:40.083Z,2.40
2019-01-06T12:33:38.639Z,2.40
2019-01-06T12:36:26.441Z,2.40
2019-01-06T12:39:19.177Z,2.60
2019-01-06T12:42:26.877Z,2.50
2019-01-06T12:45:16.319Z,2.60
2019-01-06T12:48:19.284Z,2.50
2019-01-06T12:51:09.774Z,2.60
2019-01-06T12:54:15.076Z,2.60
2019-01-06T12:57:16.121Z,2.60
2019-01-06T13:00:05.285Z,2.50
2019-01-06T13:03:04.087Z,2.40
2019-01-06T13:06:06.013Z,2.30
2019-01-06T13:08:53.982Z,2.30
2019-01-06T13:11:44.177Z,2.20
2019-01-06T13:14:32.728Z,2.30
2019-01-06T13:17:25.542Z,2.20
2019-01-06T13:20:27.983Z,2.30
2019-01-06T13:23:33.954Z,2.10
2019-01-06T13:26:24.948Z,2.20
2019-01-06T13:29:13.088Z,2.00
2019-01-06T13:32:01.949Z,2.00
2019-01-06T13:34:57.759Z,1.90
2019-01-06T13:37:47.273Z,2.00
2019-01-06T13:40:36.459Z,1.90
2019-01-06T13:43:35.734Z,1.90
2019-01-06T13:46:28.841Z,1.90
2019-01-06T13:49:17.831Z,1.90
2019-01-06T13:52:10.575Z,1.90
2019-01-06T13:55:16.234Z,1.90
2019-01-06T13:58:08.667Z,1.90
2019-01-06T14:00:57.097Z,1.90
2019-01-06T14:03:56.286Z,2.00
2019-01-06T14:06:45.299Z,2.00
2019-01-06T14:09:34.415Z,2.00
2019-01-06T14:12:40.190Z,2.00
2019-01-06T14:15:35.484Z,1.90
2019-01-06T14:18:23.936Z,1.90
2019-01-06T14:21:32.632Z,1.90
2019-01-06T14:24:31.691Z,1.90
2019-01-06T14:27:26.781Z,1.80
2019-01-06T14:30:25.453Z,1.70
2019-01-06T14:33:28.848Z,1.60
2019-01-06T14:36:28.394Z,1.50
2019-01-06T14:39:28.287Z,1.40
2019-01-06T14:42:22.133Z,1.40
2019-01-06T14:45:10.916Z,1.50
2019-01-06T14:48:07.164Z,1.40
2019-01-06T14:51:09.198Z,1.30
2019-01-06T14:53:58.636Z,1.20
2019-01-06T14:56:47.028Z,1.20
2019-01-06T14:59:35.169Z,1.10
2019-01-06T15:02:28.731Z,1.10
2019-01-06T15:05:27.721Z,1.00
2019-01-06T15:08:16.999Z,1.20
2019-01-06T15:11:09.434Z,1.10
2019-01-06T15:13:59.320Z,1.00
2019-01-06T15:16:52.372Z,1.10
2019-01-06T15:19:41.486Z,1.20
2019-01-06T15:22:30.255Z,1.10
2019-01-06T15:25:14.681Z,1.20
2019-01-06T15:28:11.640Z,1.20
2019-01-06T15:31:17.193Z,1.00
2019-01-06T15:34:06.513Z,1.00
2019-01-06T15:37:06.007Z,0.90
2019-01-06T15:40:14.254Z,0.90
2019-01-06T15:43:04.561Z,0.90
2019-01-06T15:45:54.547Z,0.80
2019-01-06T15:49:00.193Z,0.70
2019-01-06T15:52:04.708Z,0.70
2019-01-06T15:55:00.427Z,0.60
2019-01-06T15:57:51.318Z,0.70
2019-01-06T16:00:54.127Z,0.90
2019-01-06T16:03:42.868Z,0.80
2019-01-06T16:06:31.343Z,0.70
2019-01-06T16:09:20.268Z,0.70
2019-01-06T16:12:14.538Z,0.70
2019-01-06T16:15:04.749Z,0.50
2019-01-06T16:17:58.104Z,0.60
2019-01-06T16:20:47.996Z,0.60
2019-01-06T16:23:41.658Z,0.80
2019-01-06T16:26:38.446Z,0.80
2019-01-06T16:29:43.747Z,0.80
2019-01-06T16:32:44.350Z,0.70
2019-01-06T16:35:44.411Z,0.60
2019-01-06T16:38:35.220Z,0.70
2019-01-06T16:41:24.576Z,0.60
2019-01-06T16:44:13.176Z,0.60
2019-01-06T16:47:11.487Z,0.60
2019-01-06T16:50:00.163Z,0.60
2019-01-06T16:53:09.227Z,0.50
2019-01-06T16:55:59.894Z,0.40
2019-01-06T16:58:56.255Z,0.50
2019-01-06T17:01:52.889Z,0.50
2019-01-06T17:04:55.067Z,0.60
2019-01-06T17:07:43.135Z,0.60
2019-01-06T17:10:32.367Z,0.80
2019-01-06T17:13:41.218Z,0.70
2019-01-06T17:16:34.130Z,0.60
2019-01-06T17:19:34.543Z,0.70
2019-01-06T17:22:37.670Z,0.80
2019-01-06T17:25:26.096Z,0.80
2019-01-06T17:28:14.623Z,0.80
2019-01-06T17:31:12.510Z,1.00
2019-01-06T17:33:57.535Z,0.80
2019-01-06T17:36:47.869Z,0.80
2019-01-06T17:39:36.685Z,0.90
2019-01-06T17:42:25.424Z,0.80
2019-01-06T17:45:14.625Z,0.70
2019-01-06T17:48:13.471Z,0.70
2019-01-06T17:51:02.106Z,0.80
2019-01-06T17:53:51.007Z,0.80
2019-01-06T17:57:01.121Z,0.70
2019-01-06T17:59:49.362Z,0.80
2019-01-06T18:02:46.546Z,0.80
2019-01-06T18:05:51.753Z,0.70
2019-01-06T18:08:41.028Z,0.70
2019-01-06T18:11:26.537Z,0.70
2019-01-06T18:14:22.173Z,0.70
2019-01-06T18:17:27.973Z,0.70
2019-01-06T18:20:20.730Z,0.90
2019-01-06T18:23:27.569Z,1.00
2019-01-06T18:26:20.475Z,1.00
2019-01-06T18:29:09.729Z,1.10
2019-01-06T18:31:57.871Z,1.00
2019-01-06T18:34:54.095Z,1.10
2019-01-06T18:37:43.652Z,1.20
2019-01-06T18:40:34.614Z,1.20
2019-01-06T18:43:22.827Z,1.10
2019-01-06T18:46:11.081Z,1.20
2019-01-06T18:48:58.853Z,1.20
2019-01-06T18:51:47.351Z,1.10
2019-01-06T18:54:40.109Z,1.00
2019-01-06T18:57:36.545Z,1.10
2019-01-06T19:00:25.790Z,1.20
2019-01-06T19:03:19.783Z,1.10
2019-01-06T19:06:18.471Z,1.20
2019-01-06T19:09:07.027Z,1.20
2019-01-06T19:12:06.225Z,1.20
2019-01-06T19:15:05.219Z,1.10
2019-01-06T19:18:12.151Z,1.10
2019-01-06T19:21:00.861Z,1.10
2019-01-06T19:23:52.450Z,1.20
2019-01-06T19:26:42.165Z,1.10
2019-01-06T19:29:35.797Z,1.10
2019-01-06T19:32:29.729Z,1.00
2019-01-06T19:35:24.095Z,1.10
2019-01-06T19:38:13.705Z,1.30
2019-01-06T19:41:05.710Z,1.30
2019-01-06T19:44:04.736Z,1.30
2019-01-06T19:46:58.276Z,1.30
2019-01-06T19:49:52.984Z,1.40
2019-01-06T19:52:45.921Z,1.40
2019-01-06T19:55:45.554Z,1.40
2019-01-06T19:58:40.933Z,1.30
2019-01-06T20:01:40.296Z,1.50
2019-01-06T20:04:37.608Z,1.70
2019-01-06T20:07:29.896Z,1.60
2019-01-06T20:10:20.114Z,1.60
2019-01-06T20:13:13.015Z,1.50
2019-01-06T20:16:06.397Z,1.40
2019-01-06T20:18:55.700Z,1.40
2019-01-06T20:21:46.081Z,1.40
2019-01-06T20:24:37.834Z,1.30
2019-01-06T20:27:33.899Z,1.40
2019-01-06T20:30:26.509Z,1.40
2019-01-06T20:33:25.667Z,1.60
2019-01-06T20:36:13.546Z,1.50
2019-01-06T20:39:03.015Z,1.50
2019-01-06T20:42:05.834Z,1.50
2019-01-06T20:45:11.599Z,1.40
2019-01-06T20:48:01.489Z,1.30
2019-01-06T20:50:48.616Z,1.40
2019-01-06T20:53:37.820Z,1.20
2019-01-06T20:56:28.333Z,1.40
2019-01-06T20:59:18.027Z,1.30
2019-01-06T21:02:21.167Z,1.50
2019-01-06T21:05:26.871Z,1.60
2019-01-06T21:08:16.096Z,1.60
2019-01-06T21:11:09.546Z,1.50
2019-01-06T21:14:33.504Z,1.50
2019-01-06T21:17:23.170Z,1.50
2019-01-06T21:20:31.999Z,1.40
2019-01-06T21:23:20.944Z,1.40
2019-01-06T21:26:09.814Z,1.50
2019-01-06T21:29:00.962Z,1.60
2019-01-06T21:31:50.772Z,1.60
2019-01-06T21:34:47.600Z,1.40
2019-01-06T21:37:41.647Z,1.50
2019-01-06T21:40:50.424Z,1.70
2019-01-06T21:43:40.047Z,1.80
2019-01-06T21:46:38.406Z,1.70
2019-01-06T21:49:27.663Z,1.60
2019-01-06T21:52:24.084Z,1.50
2019-01-06T21:55:25.061Z,1.60
2019-01-06T21:58:19.170Z,1.70
2019-01-06T22:01:02.633Z,1.60
2019-01-06T22:03:51.130Z,1.60
2019-01-06T22:06:40.356Z,1.60
2019-01-06T22:09:36.698Z,1.60
2019-01-06T22:12:26.722Z,1.60
2019-01-06T22:15:32.385Z,1.50
2019-01-06T22:18:28.466Z,1.60
2019-01-06T22:21:28.766Z,1.80
2019-01-06T22:24:17.447Z,1.80
2019-01-06T22:27:07.843Z,1.40
2019-01-06T22:30:00.687Z,1.40
2019-01-06T22:32:57.116Z,1.40
2019-01-06T22:35:46.620Z,1.40
2019-01-06T22:38:39.260Z,1.50
2019-01-06T22:41:31.927Z,1.50
2019-01-06T22:44:22.101Z,1.70
2019-01-06T22:47:12.161Z,1.70
2019-01-06T22:50:01.086Z,1.80
2019-01-06T22:52:49.289Z,1.80
2019-01-06T22:55:39.020Z,1.90
2019-01-06T22:58:27.198Z,1.90
2019-01-06T23:01:19.462Z,1.90
2019-01-06T23:04:07.007Z,2.00
2019-01-06T23:06:55.408Z,2.00
2019-01-06T23:10:03.539Z,1.80
2019-01-06T23:12:51.462Z,1.60
2019-01-06T23:15:43.659Z,1.60
2019-01-06T23:18:43.099Z,1.50
2019-01-06T23:21:42.900Z,1.60
2019-01-06T23:24:35.573Z,1.60
2019-01-06T23:27:24.292Z,1.30
2019-01-06T23:30:14.080Z,1.40
2019-01-06T23:33:04.907Z,1.30
2019-01-06T23:35:58.819Z,1.40
2019-01-06T23:38:47.966Z,1.40
2019-01-06T23:41:35.630Z,1.40
2019-01-06T23:44:27.984Z,1.50
2019-01-06T23:47:18.905Z,1.40
2019-01-06T23:50:14.971Z,1.50
2019-01-06T23:53:14.012Z,1.60
2019-01-06T23:56:06.217Z,1.50
2019-01-06T23:58:49.404Z,1.50
